Hidrolandia, Brazil
Current Conditions -  °F | °C
As of 9:00 PM on Saturday 25 Oct 2014 (Local Time) from SBFZ Reporting Station
Clear Clear  
Wind Chill: 79°   Ceiling: Unl
Heat Index: 81°   Visibility: 6mi
Dew Point: 68°   Wind: 12mph
Humidity: 69%   Direction: 90°E
Pressure: 29.88"   Gusts: NA
Location:  4.41°S, 40.44°W
Report Text: SBFZ 260000Z 09010KT CAVOK 26/20 Q1012
Loading
Personal Weather Stations






























Interactive Weather Map
Tropical Storm Tracking
New forecast layout! Learn more

10-Day Weather Forecast

Advertisements
Track Severe Weather on mobile